Time,TemperatureF,DewpointF,PressureIn,WindDirection,WindDirectionDegrees,WindSpeedMPH,WindSpeedGustMPH,Humidity,HourlyPrecipIn,Conditions,Clouds,dailyrainin,SoftwareType,DateUTC
2013-06-21 00:01:00,69.1,65.4,30.16,NNE,14,0.0,0.0,88,0.00,,SKC,0.00,VWS V14.01,2013-06-21 04:01:00,
2013-06-21 00:06:00,69.1,65.7,30.16,NNE,15,0.0,0.0,89,0.00,,SKC,0.00,VWS V14.01,2013-06-21 04:06:00,
2013-06-21 00:11:00,69.1,65.7,30.16,NNE,15,0.0,0.0,89,0.00,,SKC,0.00,VWS V14.01,2013-06-21 04:11:00,
2013-06-21 00:16:00,68.4,65.0,30.16,NNE,14,0.0,0.0,89,0.00,,SKC,0.00,VWS V14.01,2013-06-21 04:16:00,
2013-06-21 00:21:00,68.4,65.4,30.16,NNE,15,0.0,0.0,90,0.00,,SKC,0.00,VWS V14.01,2013-06-21 04:21:00,
2013-06-21 00:26:00,68.4,65.4,30.16,NNE,15,0.0,0.0,90,0.00,,SKC,0.00,VWS V14.01,2013-06-21 04:26:00,
2013-06-21 00:31:00,68.4,65.4,30.16,NNE,15,0.0,0.0,90,0.00,,SKC,0.00,VWS V14.01,2013-06-21 04:31:00,
2013-06-21 00:36:00,68.1,65.4,30.16,NNE,15,0.0,0.0,91,0.00,,SKC,0.00,VWS V14.01,2013-06-21 04:36:00,
2013-06-21 00:41:00,67.9,65.5,30.16,NNE,15,0.0,0.0,92,0.00,,SKC,0.00,VWS V14.01,2013-06-21 04:41:00,
2013-06-21 00:46:00,67.8,65.4,30.16,NNE,15,0.0,0.0,92,0.00,,SKC,0.00,VWS V14.01,2013-06-21 04:46:00,
2013-06-21 00:51:00,67.6,64.9,30.16,NNE,15,0.0,0.0,91,0.00,,SKC,0.00,VWS V14.01,2013-06-21 04:51:00,
2013-06-21 00:56:00,67.7,65.3,30.16,NNE,14,0.0,0.0,92,0.00,,SKC,0.00,VWS V14.01,2013-06-21 04:56:00,
2013-06-21 01:01:00,67.7,65.3,30.16,NNE,15,0.0,0.0,92,0.00,,SKC,0.00,VWS V14.01,2013-06-21 05:01:00,
2013-06-21 01:06:00,67.5,65.1,30.16,NNE,14,0.0,0.0,92,0.00,,SKC,0.00,VWS V14.01,2013-06-21 05:06:00,
2013-06-21 01:11:00,67.3,65.2,30.16,NNE,15,0.0,0.0,93,0.00,,SKC,0.00,VWS V14.01,2013-06-21 05:11:00,
2013-06-21 01:16:00,67.1,65.0,30.15,NNE,15,0.0,0.0,93,0.00,,SKC,0.00,VWS V14.01,2013-06-21 05:16:00,
2013-06-21 01:21:00,67.0,64.9,30.15,NNE,15,0.0,0.0,93,0.00,,SKC,0.00,VWS V14.01,2013-06-21 05:21:00,
2013-06-21 01:26:00,66.9,64.8,30.15,NNE,15,0.0,0.0,93,0.00,,SKC,0.00,VWS V14.01,2013-06-21 05:26:00,
2013-06-21 01:31:00,66.8,64.7,30.15,NNE,15,0.0,0.0,93,0.00,,SKC,0.00,VWS V14.01,2013-06-21 05:31:00,
2013-06-21 01:36:00,66.7,64.9,30.15,NNE,15,0.0,0.0,94,0.00,,SKC,0.00,VWS V14.01,2013-06-21 05:36:00,
2013-06-21 01:41:00,66.6,64.8,30.15,NNE,15,0.0,0.0,94,0.00,,SKC,0.00,VWS V14.01,2013-06-21 05:41:00,
2013-06-21 01:46:00,66.6,64.8,30.14,NNE,14,0.0,0.0,94,0.00,,SKC,0.00,VWS V14.01,2013-06-21 05:46:00,
2013-06-21 01:51:00,66.5,64.7,30.14,NNE,15,0.0,0.0,94,0.00,,SKC,0.00,VWS V14.01,2013-06-21 05:51:00,
2013-06-21 01:56:00,66.4,64.6,30.14,NNE,14,0.0,0.0,94,0.00,,SKC,0.00,VWS V14.01,2013-06-21 05:56:00,
2013-06-21 02:01:00,66.4,64.6,30.14,NNE,15,0.0,0.0,94,0.00,,SKC,0.00,VWS V14.01,2013-06-21 06:01:00,
2013-06-21 02:06:00,66.3,64.5,30.14,NNE,15,0.0,0.0,94,0.00,,SKC,0.00,VWS V14.01,2013-06-21 06:06:00,
2013-06-21 02:11:00,66.3,64.8,30.14,NNE,15,0.0,0.0,95,0.00,,SKC,0.00,VWS V14.01,2013-06-21 06:11:00,
2013-06-21 02:16:00,66.2,64.4,30.14,NNE,15,0.0,0.0,94,0.00,,SKC,0.00,VWS V14.01,2013-06-21 06:16:00,
2013-06-21 02:21:00,66.0,64.5,30.14,NNE,15,0.0,0.0,95,0.00,,SKC,0.00,VWS V14.01,2013-06-21 06:21:00,
2013-06-21 02:26:00,65.9,64.4,30.14,NNE,15,0.0,0.0,95,0.00,,SKC,0.00,VWS V14.01,2013-06-21 06:26:00,
2013-06-21 02:31:00,65.8,64.3,30.14,NNE,15,0.0,0.0,95,0.00,,SKC,0.00,VWS V14.01,2013-06-21 06:31:00,
2013-06-21 02:36:00,65.6,64.1,30.14,NNE,15,0.0,0.0,95,0.00,,SKC,0.00,VWS V14.01,2013-06-21 06:36:00,
2013-06-21 02:41:00,65.6,64.4,30.14,NNE,15,0.0,0.0,96,0.00,,SKC,0.00,VWS V14.01,2013-06-21 06:41:00,
2013-06-21 02:46:00,65.7,64.5,30.14,NNE,15,0.0,0.0,96,0.00,,SKC,0.00,VWS V14.01,2013-06-21 06:46:00,
2013-06-21 02:51:00,65.6,64.4,30.14,NNE,15,0.0,0.0,96,0.00,,SKC,0.00,VWS V14.01,2013-06-21 06:51:00,
2013-06-21 02:56:00,65.6,64.4,30.14,NNE,15,0.0,0.0,96,0.00,,SKC,0.00,VWS V14.01,2013-06-21 06:56:00,
2013-06-21 03:01:00,65.6,64.4,30.14,NNE,15,0.0,0.0,96,0.00,,SKC,0.00,VWS V14.01,2013-06-21 07:01:00,
2013-06-21 03:06:00,65.6,64.4,30.14,NNE,15,0.0,0.0,96,0.00,,SKC,0.00,VWS V14.01,2013-06-21 07:06:00,
2013-06-21 03:11:00,65.6,64.4,30.14,NNE,15,0.0,0.0,96,0.00,,SKC,0.00,VWS V14.01,2013-06-21 07:11:00,
2013-06-21 03:16:00,65.5,64.3,30.15,NNE,15,0.0,0.0,96,0.00,,SKC,0.00,VWS V14.01,2013-06-21 07:16:00,
2013-06-21 03:21:00,65.4,64.2,30.15,NNE,15,0.0,0.0,96,0.00,,SKC,0.00,VWS V14.01,2013-06-21 07:21:00,
2013-06-21 03:26:00,65.3,64.1,30.15,NNE,14,0.0,0.0,96,0.00,,SKC,0.00,VWS V14.01,2013-06-21 07:26:00,
2013-06-21 03:31:00,65.3,64.1,30.15,NNE,15,0.0,0.0,96,0.00,,SKC,0.00,VWS V14.01,2013-06-21 07:31:00,
2013-06-21 03:36:00,65.3,64.1,30.15,NNE,15,0.0,0.0,96,0.00,,SKC,0.00,VWS V14.01,2013-06-21 07:36:00,
2013-06-21 03:41:00,64.4,64.4,30.15,NNE,15,0.0,0.0,100,0.00,,SKC,0.00,VWS V14.01,2013-06-21 07:41:00,
2013-06-21 03:46:00,64.4,64.4,30.14,NNE,15,0.0,0.0,100,0.00,,SKC,0.00,VWS V14.01,2013-06-21 07:46:00,
2013-06-21 03:52:00,64.4,64.4,30.14,NNE,15,0.0,0.0,100,0.00,,SKC,0.00,VWS V14.01,2013-06-21 07:52:00,
2013-06-21 03:57:00,64.4,64.4,30.14,NNE,15,0.0,0.0,100,0.00,,SKC,0.00,VWS V14.01,2013-06-21 07:57:00,
2013-06-21 04:02:00,64.4,64.4,30.15,NNE,15,0.0,0.0,100,0.00,,SKC,0.00,VWS V14.01,2013-06-21 08:02:00,
2013-06-21 04:07:00,64.4,64.4,30.14,NNE,15,0.0,0.0,100,0.00,,SKC,0.00,VWS V14.01,2013-06-21 08:07:00,
2013-06-21 04:12:00,64.4,64.4,30.14,NNE,15,0.0,0.0,100,0.00,,SKC,0.00,VWS V14.01,2013-06-21 08:12:00,
2013-06-21 04:17:00,64.4,64.4,30.15,NNE,15,0.0,0.0,100,0.00,,SKC,0.00,VWS V14.01,2013-06-21 08:17:00,
2013-06-21 04:22:00,64.4,64.4,30.15,NNE,15,0.0,0.0,100,0.00,,SKC,0.00,VWS V14.01,2013-06-21 08:22:00,
2013-06-21 04:27:00,64.4,64.4,30.15,NNE,15,0.0,0.0,100,0.00,,SKC,0.00,VWS V14.01,2013-06-21 08:27:00,
2013-06-21 04:32:00,64.4,64.4,30.15,NNE,15,0.0,0.0,100,0.00,,SKC,0.00,VWS V14.01,2013-06-21 08:32:00,
2013-06-21 04:37:00,64.4,64.4,30.15,NNE,15,0.0,0.0,100,0.00,,SKC,0.00,VWS V14.01,2013-06-21 08:37:00,
2013-06-21 04:42:00,64.4,64.4,30.15,NNE,15,0.0,0.0,100,0.00,,SKC,0.00,VWS V14.01,2013-06-21 08:42:00,
2013-06-21 04:47:00,64.4,64.4,30.15,NNE,15,0.0,0.0,100,0.00,,SKC,0.00,VWS V14.01,2013-06-21 08:47:00,
2013-06-21 04:52:00,64.4,64.4,30.16,NNE,15,0.0,0.0,100,0.00,,SKC,0.00,VWS V14.01,2013-06-21 08:52:00,
2013-06-21 04:57:00,64.4,64.4,30.16,NNE,15,0.0,0.0,100,0.00,,SKC,0.00,VWS V14.01,2013-06-21 08:57:00,
2013-06-21 05:02:00,64.4,64.4,30.15,NNE,15,0.0,0.0,100,0.00,,SKC,0.00,VWS V14.01,2013-06-21 09:02:00,
2013-06-21 05:07:00,64.4,64.4,30.16,NNE,15,0.0,0.0,100,0.00,,SKC,0.00,VWS V14.01,2013-06-21 09:07:00,
2013-06-21 05:12:00,64.4,64.4,30.16,NNE,15,0.0,0.0,100,0.00,,SKC,0.00,VWS V14.01,2013-06-21 09:12:00,
2013-06-21 05:17:00,64.4,64.4,30.16,NNE,15,0.0,0.0,100,0.00,,SKC,0.00,VWS V14.01,2013-06-21 09:17:00,
2013-06-21 05:22:00,64.4,64.4,30.16,NNE,15,0.0,0.0,100,0.00,,SKC,0.00,VWS V14.01,2013-06-21 09:22:00,
2013-06-21 05:27:00,64.4,64.4,30.16,NNE,15,0.0,0.0,100,0.00,,SKC,0.00,VWS V14.01,2013-06-21 09:27:00,
2013-06-21 05:32:00,64.4,64.4,30.16,NNE,15,0.0,0.0,100,0.00,,SKC,0.00,VWS V14.01,2013-06-21 09:32:00,
2013-06-21 05:37:00,64.4,64.4,30.16,NNE,15,0.0,0.0,100,0.00,,SKC,0.00,VWS V14.01,2013-06-21 09:37:00,
2013-06-21 05:42:00,64.4,64.4,30.16,NNE,15,0.0,0.0,100,0.00,,SKC,0.00,VWS V14.01,2013-06-21 09:42:00,
2013-06-21 05:47:00,64.4,64.4,30.16,NNE,15,0.0,0.0,100,0.00,,SKC,0.00,VWS V14.01,2013-06-21 09:47:00,
2013-06-21 05:52:00,64.4,64.4,30.16,NNE,15,0.0,0.0,100,0.00,,SKC,0.00,VWS V14.01,2013-06-21 09:52:00,
2013-06-21 05:57:00,64.4,64.4,30.16,NNE,15,0.0,0.0,100,0.00,,SKC,0.00,VWS V14.01,2013-06-21 09:57:00,
2013-06-21 06:02:00,64.4,64.4,30.16,NNE,15,0.0,0.0,100,0.00,,SKC,0.00,VWS V14.01,2013-06-21 10:02:00,
2013-06-21 06:07:00,64.4,64.4,30.16,NNE,15,0.0,0.0,100,0.00,,SKC,0.00,VWS V14.01,2013-06-21 10:07:00,
2013-06-21 06:12:00,64.4,64.4,30.16,NNE,15,0.0,0.0,100,0.00,,SKC,0.00,VWS V14.01,2013-06-21 10:12:00,
2013-06-21 06:17:00,64.4,64.4,30.16,NNE,15,0.0,0.0,100,0.00,,SKC,0.00,VWS V14.01,2013-06-21 10:17:00,
2013-06-21 06:22:00,64.4,64.4,30.16,NNE,15,0.0,0.0,100,0.00,,SKC,0.00,VWS V14.01,2013-06-21 10:22:00,
2013-06-21 06:27:00,64.4,64.4,30.16,NNE,15,0.0,0.0,100,0.00,,SKC,0.00,VWS V14.01,2013-06-21 10:27:00,
2013-06-21 06:32:00,64.4,64.4,30.16,NNE,15,0.0,0.0,100,0.00,,SKC,0.00,VWS V14.01,2013-06-21 10:32:00,
2013-06-21 06:37:00,64.4,64.4,30.16,NNE,15,0.0,0.0,100,0.00,,SKC,0.00,VWS V14.01,2013-06-21 10:37:00,
2013-06-21 06:42:00,64.4,64.4,30.17,NNE,15,0.0,0.0,100,0.00,,SKC,0.00,VWS V14.01,2013-06-21 10:42:00,
2013-06-21 06:47:00,64.4,64.4,30.17,NNE,15,0.0,0.0,100,0.00,,SKC,0.00,VWS V14.01,2013-06-21 10:47:00,
2013-06-21 06:52:00,64.4,64.4,30.17,NNE,15,0.0,0.0,100,0.00,,SKC,0.00,VWS V14.01,2013-06-21 10:52:00,
2013-06-21 06:57:00,64.4,64.4,30.18,NNE,15,0.0,0.0,100,0.00,,SKC,0.00,VWS V14.01,2013-06-21 10:57:00,
2013-06-21 07:02:00,64.4,64.4,30.18,NNE,15,0.0,0.0,100,0.00,,BKN150,0.00,VWS V14.01,2013-06-21 11:02:00,
2013-06-21 07:07:00,64.4,64.4,30.18,NNE,15,0.0,0.0,100,0.00,,BKN150,0.00,VWS V14.01,2013-06-21 11:07:00,
2013-06-21 07:12:00,64.4,64.4,30.18,NNE,15,0.0,0.0,100,0.00,,BKN150,0.00,VWS V14.01,2013-06-21 11:12:00,
2013-06-21 07:17:00,64.4,64.4,30.18,NNE,15,0.0,0.0,100,0.00,,BKN150,0.00,VWS V14.01,2013-06-21 11:17:00,
2013-06-21 07:22:00,64.4,64.4,30.18,NNE,15,0.0,0.0,100,0.00,,BKN150,0.00,VWS V14.01,2013-06-21 11:22:00,
2013-06-21 07:27:00,64.4,64.4,30.18,NNE,15,0.0,0.0,100,0.00,,BKN150,0.00,VWS V14.01,2013-06-21 11:27:00,
2013-06-21 07:32:00,67.2,65.7,30.18,ENE,75,0.0,0.0,95,0.00,,BKN150,0.00,VWS V14.01,2013-06-21 11:32:00,
2013-06-21 07:37:00,67.9,66.1,30.18,East,80,0.0,0.0,94,0.00,,BKN150,0.00,VWS V14.01,2013-06-21 11:37:00,
2013-06-21 07:42:00,68.6,66.2,30.18,ENE,69,0.0,2.0,92,0.00,,BKN150,0.00,VWS V14.01,2013-06-21 11:42:00,
2013-06-21 07:47:00,69.5,66.8,30.18,East,101,0.0,0.0,91,0.00,,BKN150,0.00,VWS V14.01,2013-06-21 11:47:00,
2013-06-21 07:52:00,69.9,66.2,30.18,East,88,3.0,3.0,88,0.00,,BKN150,0.00,VWS V14.01,2013-06-21 11:52:00,
2013-06-21 07:57:00,70.1,66.4,30.18,East,97,0.0,0.0,88,0.00,,BKN150,0.00,VWS V14.01,2013-06-21 11:57:00,
2013-06-21 08:02:00,70.5,66.4,30.19,East,79,0.0,1.0,87,0.00,,BKN150,0.00,VWS V14.01,2013-06-21 12:02:00,
2013-06-21 08:07:00,71.2,67.1,30.19,East,94,0.0,0.0,87,0.00,,BKN150,0.00,VWS V14.01,2013-06-21 12:07:00,
2013-06-21 08:12:00,71.8,67.4,30.19,East,95,0.0,0.0,86,0.00,,BKN150,0.00,VWS V14.01,2013-06-21 12:12:00,
2013-06-21 08:17:00,72.8,68.7,30.19,East,94,0.0,0.0,87,0.00,,BKN150,0.00,VWS V14.01,2013-06-21 12:17:00,
2013-06-21 08:22:00,73.3,67.8,30.19,East,88,1.0,1.0,83,0.00,,BKN150,0.00,VWS V14.01,2013-06-21 12:22:00,
2013-06-21 08:27:00,72.9,67.1,30.19,ENE,65,0.0,1.0,82,0.00,,BKN150,0.00,VWS V14.01,2013-06-21 12:27:00,
2013-06-21 08:32:00,72.9,67.8,30.19,East,90,0.0,0.0,84,0.00,,BKN150,0.00,VWS V14.01,2013-06-21 12:32:00,
2013-06-21 08:37:00,73.2,67.4,30.19,East,88,0.0,1.0,82,0.00,,BKN150,0.00,VWS V14.01,2013-06-21 12:37:00,
2013-06-21 08:42:00,74.0,67.8,30.20,East,90,0.0,1.0,81,0.00,,BKN150,0.00,VWS V14.01,2013-06-21 12:42:00,
2013-06-21 08:47:00,74.6,67.7,30.20,East,92,0.0,0.0,79,0.00,,BKN150,0.00,VWS V14.01,2013-06-21 12:47:00,
2013-06-21 08:52:00,75.5,68.9,30.19,East,90,0.0,0.0,80,0.00,,BKN150,0.00,VWS V14.01,2013-06-21 12:52:00,
2013-06-21 08:57:00,75.9,68.6,30.19,East,100,1.0,1.0,78,0.00,,BKN150,0.00,VWS V14.01,2013-06-21 12:57:00,
2013-06-21 09:02:00,75.5,67.4,30.20,East,90,0.0,0.0,76,0.00,,SCT150,0.00,VWS V14.01,2013-06-21 13:02:00,
2013-06-21 09:07:00,75.3,67.6,30.20,East,86,0.0,0.0,77,0.00,,SCT150,0.00,VWS V14.01,2013-06-21 13:07:00,
2013-06-21 09:12:00,75.6,67.9,30.20,ESE,106,0.0,0.0,77,0.00,,SCT150,0.00,VWS V14.01,2013-06-21 13:12:00,
2013-06-21 09:17:00,76.1,68.4,30.20,East,91,0.0,0.0,77,0.00,,SCT150,0.00,VWS V14.01,2013-06-21 13:17:00,
2013-06-21 09:22:00,76.7,68.6,30.20,ENE,73,0.0,0.0,76,0.00,,SCT150,0.00,VWS V14.01,2013-06-21 13:22:00,
2013-06-21 09:27:00,76.5,67.6,30.20,ENE,75,1.0,3.0,74,0.00,,SCT150,0.00,VWS V14.01,2013-06-21 13:27:00,
2013-06-21 09:32:00,76.2,67.7,30.20,East,80,2.0,2.0,75,0.00,,SCT150,0.00,VWS V14.01,2013-06-21 13:32:00,
2013-06-21 09:37:00,76.2,66.9,30.20,ESE,110,2.0,3.0,73,0.00,,SCT150,0.00,VWS V14.01,2013-06-21 13:37:00,
2013-06-21 09:42:00,76.1,67.2,30.20,ENE,70,3.0,3.0,74,0.00,,SCT150,0.00,VWS V14.01,2013-06-21 13:42:00,
2013-06-21 09:47:00,76.4,67.1,30.20,NE,50,2.0,3.0,73,0.00,,SCT150,0.00,VWS V14.01,2013-06-21 13:47:00,
2013-06-21 09:52:00,76.8,68.3,30.20,East,94,0.0,0.0,75,0.00,,SCT150,0.00,VWS V14.01,2013-06-21 13:52:00,
2013-06-21 09:57:00,76.9,68.0,30.20,East,91,0.0,0.0,74,0.00,,SCT150,0.00,VWS V14.01,2013-06-21 13:57:00,
2013-06-21 10:02:00,77.5,68.2,30.20,NE,46,0.0,2.0,73,0.00,,SCT150,0.00,VWS V14.01,2013-06-21 14:02:00,
2013-06-21 10:07:00,77.9,68.2,30.20,East,84,0.0,0.0,72,0.00,,FEW150,0.00,VWS V14.01,2013-06-21 14:07:00,
2013-06-21 10:12:00,77.6,67.9,30.20,WNW,298,1.0,3.0,72,0.00,,FEW150,0.00,VWS V14.01,2013-06-21 14:12:00,
2013-06-21 10:17:00,77.6,67.5,30.20,NNE,27,0.0,2.0,71,0.00,,FEW150,0.00,VWS V14.01,2013-06-21 14:17:00,
2013-06-21 10:22:00,78.4,68.6,30.20,East,88,2.0,2.0,72,0.00,,FEW150,0.00,VWS V14.01,2013-06-21 14:22:00,
2013-06-21 10:27:00,78.8,69.4,30.20,ENE,58,0.0,1.0,73,0.00,,FEW150,0.00,VWS V14.01,2013-06-21 14:27:00,
2013-06-21 10:32:00,79.0,67.6,30.20,ENE,72,3.0,3.0,68,0.00,,FEW150,0.00,VWS V14.01,2013-06-21 14:32:00,
2013-06-21 10:37:00,78.4,67.4,30.20,North,6,3.0,4.0,69,0.00,,FEW150,0.00,VWS V14.01,2013-06-21 14:37:00,
2013-06-21 10:42:00,78.3,67.7,30.20,West,262,1.0,4.0,70,0.00,,FEW150,0.00,VWS V14.01,2013-06-21 14:42:00,
2013-06-21 10:47:00,79.0,68.8,30.20,SSW,195,1.0,3.0,71,0.00,,FEW150,0.00,VWS V14.01,2013-06-21 14:47:00,
2013-06-21 10:52:00,79.5,68.4,30.21,SE,134,1.0,6.0,69,0.00,,FEW150,0.00,VWS V14.01,2013-06-21 14:52:00,
2013-06-21 10:57:00,79.9,69.2,30.20,SW,222,0.0,0.0,70,0.00,,FEW150,0.00,VWS V14.01,2013-06-21 14:57:00,
2013-06-21 11:02:00,80.6,67.3,30.20,East,93,1.0,6.0,64,0.00,,SCT031,0.00,VWS V14.01,2013-06-21 15:02:00,
2013-06-21 11:07:00,80.6,67.3,30.21,WSW,248,0.0,1.0,64,0.00,,SCT031,0.00,VWS V14.01,2013-06-21 15:07:00,
2013-06-21 11:12:00,80.5,67.7,30.21,ENE,77,5.0,5.0,65,0.00,,SCT031,0.00,VWS V14.01,2013-06-21 15:12:00,
2013-06-21 11:17:00,79.6,67.7,30.21,NNE,16,2.0,3.0,67,0.00,,SCT031,0.00,VWS V14.01,2013-06-21 15:17:00,
2013-06-21 11:22:00,79.5,67.2,30.21,SE,136,1.0,2.0,66,0.00,,SCT031,0.00,VWS V14.01,2013-06-21 15:22:00,
2013-06-21 11:27:00,78.8,66.1,30.21,ENE,68,2.0,3.0,65,0.00,,SCT031,0.00,VWS V14.01,2013-06-21 15:27:00,
2013-06-21 11:32:00,78.1,64.9,30.21,SSW,207,0.0,2.0,64,0.00,,SCT031,0.00,VWS V14.01,2013-06-21 15:32:00,
2013-06-21 11:37:00,78.6,67.2,30.21,SW,235,0.0,1.0,68,0.00,,SCT031,0.00,VWS V14.01,2013-06-21 15:37:00,
2013-06-21 11:42:00,78.6,66.3,30.21,East,94,2.0,2.0,66,0.00,,SCT031,0.00,VWS V14.01,2013-06-21 15:42:00,
2013-06-21 11:47:00,78.8,66.9,30.21,NE,47,1.0,3.0,67,0.00,,SCT031,0.00,VWS V14.01,2013-06-21 15:47:00,
2013-06-21 11:52:00,79.2,68.2,30.20,ENE,62,0.0,1.0,69,0.00,,SCT031,0.00,VWS V14.01,2013-06-21 15:52:00,
2013-06-21 11:57:00,80.1,67.7,30.21,WSW,241,0.0,1.0,66,0.00,,SCT031,0.00,VWS V14.01,2013-06-21 15:57:00,
2013-06-21 12:02:00,80.5,68.1,30.20,East,91,2.0,2.0,66,0.00,,SCT037,0.00,VWS V14.01,2013-06-21 16:02:00,
2013-06-21 12:07:00,80.7,66.9,30.20,ESE,108,0.0,2.0,63,0.00,,SCT037,0.00,VWS V14.01,2013-06-21 16:07:00,
2013-06-21 12:12:00,81.0,67.2,30.21,ENE,67,1.0,2.0,63,0.00,,SCT037,0.00,VWS V14.01,2013-06-21 16:12:00,
2013-06-21 12:17:00,81.2,66.5,30.21,ESE,105,1.0,7.0,61,0.00,,SCT037,0.00,VWS V14.01,2013-06-21 16:17:00,
2013-06-21 12:22:00,81.3,66.6,30.20,East,84,1.0,2.0,61,0.00,,SCT037,0.00,VWS V14.01,2013-06-21 16:22:00,
2013-06-21 12:27:00,81.5,65.3,30.20,East,79,2.0,2.0,58,0.00,,SCT037,0.00,VWS V14.01,2013-06-21 16:27:00,
2013-06-21 12:32:00,82.7,69.8,30.20,ENE,62,0.0,2.0,65,0.00,,SCT037,0.00,VWS V14.01,2013-06-21 16:32:00,
2013-06-21 12:38:00,82.8,66.0,30.20,SSW,205,0.0,4.0,57,0.00,,SCT037,0.00,VWS V14.01,2013-06-21 16:38:00,
2013-06-21 12:43:00,82.6,66.3,30.20,East,82,0.0,3.0,58,0.00,,SCT037,0.00,VWS V14.01,2013-06-21 16:43:00,
2013-06-21 12:48:00,83.0,65.7,30.20,ESE,106,2.0,3.0,56,0.00,,SCT037,0.00,VWS V14.01,2013-06-21 16:48:00,
2013-06-21 12:53:00,83.2,67.4,30.20,NE,49,0.0,3.0,59,0.00,,SCT037,0.00,VWS V14.01,2013-06-21 16:53:00,
2013-06-21 12:58:00,83.6,64.1,30.20,ESE,105,4.0,6.0,52,0.00,,SCT037,0.00,VWS V14.01,2013-06-21 16:58:00,
2013-06-21 13:03:00,82.9,66.1,30.20,East,93,5.0,5.0,57,0.00,,SCT040,0.00,VWS V14.01,2013-06-21 17:03:00,
2013-06-21 13:08:00,83.1,68.3,30.19,East,89,3.0,3.0,61,0.00,,SCT040,0.00,VWS V14.01,2013-06-21 17:08:00,
2013-06-21 13:13:00,82.7,65.9,30.20,ENE,60,1.0,2.0,57,0.00,,SCT040,0.00,VWS V14.01,2013-06-21 17:13:00,
2013-06-21 13:18:00,82.4,67.1,30.19,WSW,243,2.0,2.0,60,0.00,,SCT040,0.00,VWS V14.01,2013-06-21 17:18:00,
2013-06-21 13:23:00,82.4,67.1,30.20,ESE,110,1.0,1.0,60,0.00,,SCT040,0.00,VWS V14.01,2013-06-21 17:23:00,
2013-06-21 13:28:00,83.4,69.9,30.20,ESE,103,2.0,4.0,64,0.00,,SCT040,0.00,VWS V14.01,2013-06-21 17:28:00,
2013-06-21 13:33:00,83.2,65.9,30.19,NNE,30,1.0,2.0,56,0.00,,SCT040,0.00,VWS V14.01,2013-06-21 17:33:00,
2013-06-21 13:38:00,83.4,66.1,30.19,ENE,57,1.0,3.0,56,0.00,,SCT040,0.00,VWS V14.01,2013-06-21 17:38:00,
2013-06-21 13:43:00,83.9,67.1,30.19,East,82,0.0,4.0,57,0.00,,SCT040,0.00,VWS V14.01,2013-06-21 17:43:00,
2013-06-21 13:46:00,84.2,66.3,30.20,NNW,348,0.0,4.0,55,0.00,,SCT040,0.00,VWS V14.01,2013-06-21 17:46:00,
2013-06-21 13:51:00,85.0,67.6,30.19,NNE,25,1.0,3.0,56,0.00,,SCT040,0.00,VWS V14.01,2013-06-21 17:51:00,
2013-06-21 13:57:00,85.2,67.2,30.19,East,89,1.0,4.0,55,0.00,,SCT040,0.00,VWS V14.01,2013-06-21 17:57:00,
2013-06-21 14:02:00,84.8,66.8,30.19,ENE,78,0.0,6.0,55,0.00,,SCT040,0.00,VWS V14.01,2013-06-21 18:02:00,
2013-06-21 14:07:00,84.3,67.9,30.19,ESE,116,1.0,3.0,58,0.00,,BKN070,0.00,VWS V14.01,2013-06-21 18:07:00,
2013-06-21 14:12:00,83.5,67.2,30.19,East,93,0.0,0.0,58,0.00,,BKN070,0.00,VWS V14.01,2013-06-21 18:12:00,
2013-06-21 14:17:00,84.0,67.1,30.18,North,356,1.0,4.0,57,0.00,,BKN070,0.00,VWS V14.01,2013-06-21 18:17:00,
2013-06-21 14:22:00,83.5,67.2,30.18,ENE,64,1.0,2.0,58,0.00,,BKN070,0.00,VWS V14.01,2013-06-21 18:22:00,
2013-06-21 14:23:00,83.5,65.7,30.18,ESE,122,1.0,2.0,55,0.00,,BKN070,0.00,VWS V14.01,2013-06-21 18:23:00,
2013-06-21 14:24:00,83.5,66.7,30.18,ESE,120,1.0,2.0,57,0.00,,BKN070,0.00,VWS V14.01,2013-06-21 18:24:00,
2013-06-21 14:29:00,83.5,66.7,30.18,WSW,242,1.0,2.0,57,0.00,,BKN070,0.00,VWS V14.01,2013-06-21 18:29:00,
2013-06-21 14:34:00,84.0,65.6,30.18,ESE,107,1.0,2.0,54,0.00,,BKN070,0.00,VWS V14.01,2013-06-21 18:34:00,
2013-06-21 14:39:00,84.8,65.8,30.18,ESE,115,2.0,4.0,53,0.00,,BKN070,0.00,VWS V14.01,2013-06-21 18:39:00,
2013-06-21 14:44:00,83.1,65.8,30.18,NE,44,0.0,4.0,56,0.00,,BKN070,0.00,VWS V14.01,2013-06-21 18:44:00,
2013-06-21 14:45:00,82.8,65.5,30.18,East,87,3.0,4.0,56,0.00,,BKN070,0.00,VWS V14.01,2013-06-21 18:45:00,
2013-06-21 14:50:00,83.1,68.3,30.18,ENE,75,1.0,2.0,61,0.00,,BKN070,0.00,VWS V14.01,2013-06-21 18:50:00,
2013-06-21 14:55:00,84.4,69.5,30.17,SW,225,3.0,4.0,61,0.00,,BKN070,0.00,VWS V14.01,2013-06-21 18:55:00,
2013-06-21 15:00:00,84.7,65.7,30.17,NNE,16,3.0,3.0,53,0.00,,BKN070,0.00,VWS V14.01,2013-06-21 19:00:00,
2013-06-21 15:05:00,82.9,66.1,30.17,NNE,29,0.0,7.0,57,0.00,,BKN050,0.00,VWS V14.01,2013-06-21 19:05:00,
2013-06-21 15:11:00,82.4,67.1,30.17,NNE,20,1.0,2.0,60,0.00,,BKN050,0.00,VWS V14.01,2013-06-21 19:11:00,
2013-06-21 15:16:00,82.7,65.9,30.17,East,82,0.0,3.0,57,0.00,,BKN050,0.00,VWS V14.01,2013-06-21 19:16:00,
2013-06-21 15:20:00,83.9,66.5,30.16,ESE,112,0.0,2.0,56,0.00,,BKN050,0.00,VWS V14.01,2013-06-21 19:20:00,
2013-06-21 15:25:00,85.2,67.2,30.16,NE,49,0.0,1.0,55,0.00,,BKN050,0.00,VWS V14.01,2013-06-21 19:25:00,
2013-06-21 15:30:00,84.4,65.9,30.16,NNE,25,2.0,4.0,54,0.00,,BKN050,0.00,VWS V14.01,2013-06-21 19:30:00,
2013-06-21 15:35:00,84.1,66.7,30.16,East,85,1.0,4.0,56,0.00,,BKN050,0.00,VWS V14.01,2013-06-21 19:35:00,
2013-06-21 15:40:00,84.6,66.1,30.16,North,356,1.0,2.0,54,0.00,,BKN050,0.00,VWS V14.01,2013-06-21 19:40:00,
2013-06-21 15:42:00,84.7,66.2,30.16,North,356,0.0,1.0,54,0.00,,BKN050,0.00,VWS V14.01,2013-06-21 19:42:00,
2013-06-21 15:48:00,84.8,67.4,30.16,East,84,3.0,3.0,56,0.00,,BKN050,0.00,VWS V14.01,2013-06-21 19:48:00,
2013-06-21 15:53:00,85.1,68.7,30.16,NNE,22,4.0,5.0,58,0.00,,BKN050,0.00,VWS V14.01,2013-06-21 19:53:00,
2013-06-21 15:58:00,85.6,69.1,30.15,West,259,0.0,0.0,58,0.00,,BKN050,0.00,VWS V14.01,2013-06-21 19:58:00,
2013-06-21 16:03:00,85.9,66.2,30.15,SSW,198,0.0,3.0,52,0.00,,SCT050,0.00,VWS V14.01,2013-06-21 20:03:00,
2013-06-21 16:04:00,85.9,66.2,30.15,SW,228,0.0,2.0,52,0.00,,SCT050,0.00,VWS V14.01,2013-06-21 20:04:00,
2013-06-21 16:09:00,85.8,67.2,30.15,North,356,1.0,1.0,54,0.00,,SCT050,0.00,VWS V14.01,2013-06-21 20:09:00,
2013-06-21 16:11:00,85.7,64.4,30.15,NE,49,2.0,3.0,49,0.00,,SCT050,0.00,VWS V14.01,2013-06-21 20:11:00,
2013-06-21 16:14:00,85.2,67.2,30.14,East,83,0.0,3.0,55,0.00,,SCT050,0.00,VWS V14.01,2013-06-21 20:14:00,
2013-06-21 16:19:00,85.4,66.9,30.14,NE,43,2.0,2.0,54,0.00,,SCT050,0.00,VWS V14.01,2013-06-21 20:19:00,
2013-06-21 16:24:00,84.6,65.1,30.14,ESE,108,0.0,1.0,52,0.00,,SCT050,0.00,VWS V14.01,2013-06-21 20:24:00,
2013-06-21 16:29:00,84.7,66.2,30.14,ESE,108,0.0,0.0,54,0.00,,SCT050,0.00,VWS V14.01,2013-06-21 20:29:00,
2013-06-21 16:34:00,85.8,66.2,30.14,SE,139,0.0,1.0,52,0.00,,SCT050,0.00,VWS V14.01,2013-06-21 20:34:00,
2013-06-21 16:39:00,86.3,66.1,30.14,East,101,1.0,6.0,51,0.00,,SCT050,0.00,VWS V14.01,2013-06-21 20:39:00,
2013-06-21 16:45:00,86.0,67.4,30.14,ENE,65,1.0,2.0,54,0.00,,SCT050,0.00,VWS V14.01,2013-06-21 20:45:00,
2013-06-21 16:50:00,85.2,65.6,30.14,East,85,2.0,3.0,52,0.00,,SCT050,0.00,VWS V14.01,2013-06-21 20:50:00,
2013-06-21 16:55:00,84.8,64.1,30.14,ESE,115,0.0,3.0,50,0.00,,SCT050,0.00,VWS V14.01,2013-06-21 20:55:00,
2013-06-21 17:00:00,85.6,64.8,30.13,SW,221,1.0,1.0,50,0.00,,SCT050,0.00,VWS V14.01,2013-06-21 21:00:00,
2013-06-21 17:04:00,86.1,66.4,30.13,ENE,60,0.0,1.0,52,0.00,,SCT050,0.00,VWS V14.01,2013-06-21 21:04:00,
2013-06-21 17:09:00,86.6,67.4,30.13,East,86,1.0,1.0,53,0.00,,SCT050,0.00,VWS V14.01,2013-06-21 21:09:00,
2013-06-21 17:14:00,87.0,68.4,30.13,East,79,1.0,1.0,54,0.00,,SCT050,0.00,VWS V14.01,2013-06-21 21:14:00,
2013-06-21 17:19:00,86.0,66.9,30.13,East,90,1.0,2.0,53,0.00,,SCT050,0.00,VWS V14.01,2013-06-21 21:19:00,
2013-06-21 17:24:00,84.9,66.9,30.13,East,91,0.0,1.0,55,0.00,,SCT050,0.00,VWS V14.01,2013-06-21 21:24:00,
2013-06-21 17:29:00,85.4,69.4,30.13,SW,231,1.0,1.0,59,0.00,,SCT050,0.00,VWS V14.01,2013-06-21 21:29:00,
2013-06-21 17:34:00,86.2,67.1,30.13,WSW,245,0.0,1.0,53,0.00,,SCT050,0.00,VWS V14.01,2013-06-21 21:34:00,
2013-06-21 17:39:00,86.4,69.4,30.13,NE,54,1.0,2.0,57,0.00,,SCT050,0.00,VWS V14.01,2013-06-21 21:39:00,
2013-06-21 17:44:00,86.3,67.2,30.13,South,191,0.0,1.0,53,0.00,,SCT050,0.00,VWS V14.01,2013-06-21 21:44:00,
2013-06-21 17:49:00,86.1,67.0,30.13,ESE,114,0.0,1.0,53,0.00,,SCT050,0.00,VWS V14.01,2013-06-21 21:49:00,
2013-06-21 17:54:00,85.8,67.8,30.12,ESE,114,0.0,1.0,55,0.00,,SCT050,0.00,VWS V14.01,2013-06-21 21:54:00,
2013-06-21 17:59:00,86.1,67.0,30.12,ESE,104,0.0,0.0,53,0.00,,SCT050,0.00,VWS V14.01,2013-06-21 21:59:00,
2013-06-21 18:04:00,86.3,68.2,30.12,ENE,65,0.0,1.0,55,0.00,,SCT050,0.00,VWS V14.01,2013-06-21 22:04:00,
2013-06-21 18:09:00,86.1,67.5,30.12,East,96,0.0,1.0,54,0.00,,SCT050,0.00,VWS V14.01,2013-06-21 22:09:00,
2013-06-21 18:14:00,86.7,69.1,30.12,ENE,73,0.0,1.0,56,0.00,,SCT050,0.00,VWS V14.01,2013-06-21 22:14:00,
2013-06-21 18:19:00,86.8,68.7,30.12,West,259,0.0,0.0,55,0.00,,SCT050,0.00,VWS V14.01,2013-06-21 22:19:00,
2013-06-21 18:24:00,86.0,68.5,30.12,ENE,68,0.0,1.0,56,0.00,,SCT050,0.00,VWS V14.01,2013-06-21 22:24:00,
2013-06-21 18:29:00,85.6,67.1,30.12,ENE,68,0.0,0.0,54,0.00,,SCT050,0.00,VWS V14.01,2013-06-21 22:29:00,
2013-06-21 18:34:00,85.1,66.6,30.12,ESE,102,0.0,1.0,54,0.00,,SCT050,0.00,VWS V14.01,2013-06-21 22:34:00,
2013-06-21 18:39:00,83.8,65.9,30.12,East,89,0.0,2.0,55,0.00,,SCT050,0.00,VWS V14.01,2013-06-21 22:39:00,
2013-06-21 18:44:00,82.6,66.8,30.12,East,89,0.0,0.0,59,0.00,,SCT050,0.00,VWS V14.01,2013-06-21 22:44:00,
2013-06-21 18:49:00,81.9,66.7,30.12,ENE,74,0.0,1.0,60,0.00,,SCT050,0.00,VWS V14.01,2013-06-21 22:49:00,
2013-06-21 18:54:00,81.1,66.4,30.12,ENE,74,0.0,0.0,61,0.00,,SCT050,0.00,VWS V14.01,2013-06-21 22:54:00,
2013-06-21 18:59:00,81.2,68.3,30.11,ENE,73,0.0,0.0,65,0.00,,SCT050,0.00,VWS V14.01,2013-06-21 22:59:00,
2013-06-21 19:04:00,81.2,66.9,30.11,ENE,73,0.0,0.0,62,0.00,,SCT050,0.00,VWS V14.01,2013-06-21 23:04:00,
2013-06-21 19:09:00,81.1,67.3,30.11,ENE,73,0.0,0.0,63,0.00,,SCT050,0.00,VWS V14.01,2013-06-21 23:09:00,
2013-06-21 19:14:00,80.8,67.0,30.11,ENE,73,0.0,0.0,63,0.00,,SCT050,0.00,VWS V14.01,2013-06-21 23:14:00,
2013-06-21 19:19:00,80.7,66.5,30.11,ENE,75,0.0,1.0,62,0.00,,SCT050,0.00,VWS V14.01,2013-06-21 23:19:00,
2013-06-21 19:24:00,80.5,65.8,30.11,NE,44,0.0,1.0,61,0.00,,SCT050,0.00,VWS V14.01,2013-06-21 23:24:00,
2013-06-21 19:29:00,80.3,66.6,30.11,NE,50,0.0,1.0,63,0.00,,SCT050,0.00,VWS V14.01,2013-06-21 23:29:00,
2013-06-21 19:34:00,80.0,65.8,30.11,East,83,0.0,3.0,62,0.00,,SCT050,0.00,VWS V14.01,2013-06-21 23:34:00,
2013-06-21 19:39:00,79.8,64.7,30.11,East,89,2.0,3.0,60,0.00,,SCT050,0.00,VWS V14.01,2013-06-21 23:39:00,
2013-06-21 19:44:00,79.7,65.1,30.11,East,89,0.0,1.0,61,0.00,,SCT050,0.00,VWS V14.01,2013-06-21 23:44:00,
2013-06-21 19:49:00,79.7,65.5,30.11,East,89,0.0,0.0,62,0.00,,SCT050,0.00,VWS V14.01,2013-06-21 23:49:00,
2013-06-21 19:54:00,79.5,66.7,30.11,East,89,0.0,0.0,65,0.00,,SCT050,0.00,VWS V14.01,2013-06-21 23:54:00,
2013-06-21 19:59:00,79.1,65.0,30.11,ENE,65,0.0,2.0,62,0.00,,SCT050,0.00,VWS V14.01,2013-06-21 23:59:00,
2013-06-21 20:04:00,78.9,65.2,30.11,NE,45,0.0,0.0,63,0.00,,FEW080,0.00,VWS V14.01,2013-06-22 00:04:00,
2013-06-21 20:09:00,78.6,65.0,30.11,East,79,0.0,1.0,63,0.00,,FEW080,0.00,VWS V14.01,2013-06-22 00:09:00,
2013-06-21 20:14:00,78.4,65.2,30.11,East,86,1.0,4.0,64,0.00,,FEW080,0.00,VWS V14.01,2013-06-22 00:14:00,
2013-06-21 20:19:00,78.2,65.5,30.11,East,86,0.0,1.0,65,0.00,,FEW080,0.00,VWS V14.01,2013-06-22 00:19:00,
2013-06-21 20:24:00,77.9,66.5,30.11,East,79,0.0,1.0,68,0.00,,FEW080,0.00,VWS V14.01,2013-06-22 00:24:00,
2013-06-21 20:29:00,77.7,66.7,30.11,ESE,110,0.0,0.0,69,0.00,,FEW080,0.00,VWS V14.01,2013-06-22 00:29:00,
2013-06-21 20:34:00,77.3,65.9,30.11,ESE,110,0.0,0.0,68,0.00,,FEW080,0.00,VWS V14.01,2013-06-22 00:34:00,
2013-06-21 20:39:00,76.9,65.5,30.11,ESE,103,0.0,1.0,68,0.00,,FEW080,0.00,VWS V14.01,2013-06-22 00:39:00,
2013-06-21 20:44:00,76.6,66.5,30.11,ESE,103,0.0,0.0,71,0.00,,FEW080,0.00,VWS V14.01,2013-06-22 00:44:00,
2013-06-21 20:49:00,76.3,66.6,30.11,ESE,103,0.0,1.0,72,0.00,,FEW080,0.00,VWS V14.01,2013-06-22 00:49:00,
2013-06-21 20:54:00,76.1,66.0,30.11,East,101,0.0,1.0,71,0.00,,FEW080,0.00,VWS V14.01,2013-06-22 00:54:00,
2013-06-21 20:59:00,75.7,66.0,30.12,ESE,102,0.0,1.0,72,0.00,,FEW080,0.00,VWS V14.01,2013-06-22 00:59:00,
2013-06-21 21:04:00,75.4,66.5,30.12,East,101,0.0,0.0,74,0.00,,SKC,0.00,VWS V14.01,2013-06-22 01:04:00,
2013-06-21 21:09:00,75.0,65.8,30.12,East,101,0.0,0.0,73,0.00,,SKC,0.00,VWS V14.01,2013-06-22 01:09:00,
2013-06-21 21:14:00,74.6,66.5,30.12,East,101,0.0,0.0,76,0.00,,SKC,0.00,VWS V14.01,2013-06-22 01:14:00,
2013-06-21 21:19:00,74.3,65.9,30.12,East,101,0.0,1.0,75,0.00,,SKC,0.00,VWS V14.01,2013-06-22 01:19:00,
2013-06-21 21:24:00,74.0,65.6,30.11,East,100,0.0,1.0,75,0.00,,SKC,0.00,VWS V14.01,2013-06-22 01:24:00,
2013-06-21 21:29:00,73.9,66.2,30.12,East,101,0.0,0.0,77,0.00,,SKC,0.00,VWS V14.01,2013-06-22 01:29:00,
2013-06-21 21:34:00,73.7,66.4,30.12,East,82,0.0,0.0,78,0.00,,SKC,0.00,VWS V14.01,2013-06-22 01:34:00,
2013-06-21 21:39:00,73.3,65.3,30.12,East,82,0.0,0.0,76,0.00,,SKC,0.00,VWS V14.01,2013-06-22 01:39:00,
2013-06-21 21:44:00,73.1,65.5,30.12,East,82,0.0,0.0,77,0.00,,SKC,0.00,VWS V14.01,2013-06-22 01:44:00,
2013-06-21 21:49:00,73.1,65.5,30.12,East,82,0.0,1.0,77,0.00,,SKC,0.00,VWS V14.01,2013-06-22 01:49:00,
2013-06-21 21:54:00,73.4,65.0,30.12,ENE,71,0.0,1.0,75,0.00,,SKC,0.00,VWS V14.01,2013-06-22 01:54:00,
2013-06-21 21:59:00,73.7,64.9,30.12,ENE,71,0.0,1.0,74,0.00,,SKC,0.00,VWS V14.01,2013-06-22 01:59:00,
2013-06-21 22:04:00,73.8,65.4,30.13,East,96,0.0,0.0,75,0.00,,SKC,0.00,VWS V14.01,2013-06-22 02:04:00,
2013-06-21 22:09:00,73.7,64.9,30.13,East,84,0.0,1.0,74,0.00,,SKC,0.00,VWS V14.01,2013-06-22 02:09:00,
2013-06-21 22:14:00,73.6,65.2,30.14,ENE,65,0.0,2.0,75,0.00,,SKC,0.00,VWS V14.01,2013-06-22 02:14:00,
2013-06-21 22:19:00,73.8,65.4,30.14,NNE,26,0.0,1.0,75,0.00,,SKC,0.00,VWS V14.01,2013-06-22 02:19:00,
2013-06-21 22:24:00,73.8,65.4,30.14,NNE,26,0.0,1.0,75,0.00,,SKC,0.00,VWS V14.01,2013-06-22 02:24:00,
2013-06-21 22:29:00,73.6,65.2,30.14,East,96,0.0,2.0,75,0.00,,SKC,0.00,VWS V14.01,2013-06-22 02:29:00,
2013-06-21 22:34:00,73.3,65.7,30.15,East,96,0.0,0.0,77,0.00,,SKC,0.00,VWS V14.01,2013-06-22 02:34:00,
2013-06-21 22:39:00,73.0,65.4,30.15,East,96,0.0,0.0,77,0.00,,SKC,0.00,VWS V14.01,2013-06-22 02:39:00,
2013-06-21 22:44:00,72.6,65.3,30.15,East,96,0.0,0.0,78,0.00,,SKC,0.00,VWS V14.01,2013-06-22 02:44:00,
2013-06-21 22:49:00,72.2,65.0,30.15,East,96,0.0,0.0,78,0.00,,SKC,0.00,VWS V14.01,2013-06-22 02:49:00,
2013-06-21 22:54:00,71.8,64.9,30.15,East,96,0.0,0.0,79,0.00,,SKC,0.00,VWS V14.01,2013-06-22 02:54:00,
2013-06-21 22:59:00,71.5,64.7,30.15,East,96,0.0,0.0,79,0.00,,SKC,0.00,VWS V14.01,2013-06-22 02:59:00,
2013-06-21 23:04:00,71.5,65.4,30.15,East,96,0.0,1.0,81,0.00,,SKC,0.00,VWS V14.01,2013-06-22 03:04:00,
2013-06-21 23:09:00,71.6,66.2,30.15,East,96,0.0,0.0,83,0.00,,SKC,0.00,VWS V14.01,2013-06-22 03:09:00,
2013-06-21 23:14:00,71.4,65.3,30.16,East,96,0.0,1.0,81,0.00,,SKC,0.00,VWS V14.01,2013-06-22 03:14:00,
2013-06-21 23:19:00,71.3,65.5,30.15,East,96,0.0,0.0,82,0.00,,SKC,0.00,VWS V14.01,2013-06-22 03:19:00,
2013-06-21 23:24:00,71.1,65.7,30.15,East,96,0.0,0.0,83,0.00,,SKC,0.00,VWS V14.01,2013-06-22 03:24:00,
2013-06-21 23:29:00,70.7,65.3,30.15,East,96,0.0,0.0,83,0.00,,SKC,0.00,VWS V14.01,2013-06-22 03:29:00,
2013-06-21 23:34:00,70.4,65.3,30.15,East,96,0.0,0.0,84,0.00,,SKC,0.00,VWS V14.01,2013-06-22 03:34:00,
2013-06-21 23:39:00,69.9,64.8,30.15,East,96,0.0,0.0,84,0.00,,SKC,0.00,VWS V14.01,2013-06-22 03:39:00,
2013-06-21 23:44:00,69.7,65.7,30.15,East,96,0.0,0.0,87,0.00,,SKC,0.00,VWS V14.01,2013-06-22 03:44:00,
2013-06-21 23:49:00,69.4,65.7,30.15,East,96,0.0,0.0,88,0.00,,SKC,0.00,VWS V14.01,2013-06-22 03:49:00,
2013-06-21 23:54:00,69.2,65.5,30.15,East,96,0.0,0.0,88,0.00,,SKC,0.00,VWS V14.01,2013-06-22 03:54:00,
2013-06-21 23:59:00,69.0,65.3,30.15,East,96,0.0,0.0,88,0.00,,SKC,0.00,VWS V14.01,2013-06-22 03:59:00,